• Join FlightAware (Why Join?)
  • Login
  • US Flag 
09:52PM EDT


 

Airport Tracker/Info


-or-


 

Live Flight TrackerFlight Track Log ✈ SWA419 ✈ 18-Apr-2013 ✈ KDEN - KSJC

Flight Track Log - Related Links

Times and Time Zones

All times are in EDT time to prevent confusion due to time zone crossing. See the SWA419 flight status page for this flight to view local times or setup timezone preferences in your user account.

Time Position Orientation Groundspeed Altitude Reporting Facility
EDT Latitude Longitude Course Direction KTS MPH feet Rate Location/Type
10:29PM 39.8500 -104.7500 288° West 171 197 7,000  Level Denver TRACON
10:30PM 39.8667 -104.8167 288° West 236 272 8,700 1,980 Climbing Denver TRACON
10:31PM 39.8867 -104.9250 284° West 285 328 11,200 3,000 Climbing Denver Center
10:32PM 39.8825 -105.0497 268° West 318 366 15,000 3,240 Climbing Denver Center
10:33PM 39.8792 -105.1739 268° West 345 397 17,900 2,820 Climbing Denver Center
10:34PM 39.8747 -105.3047 268° West 362 417 20,900 2,820 Climbing Denver Center
10:35PM 39.8675 -105.4531 266° West 383 441 23,700 2,400 Climbing Denver Center
10:36PM 39.8647 -105.5892 269° West 387 445 25,900 2,340 Climbing Denver Center
10:37PM 39.8583 -105.7361 267° West 399 459 28,600 1,980 Climbing Denver Center
10:38PM 39.8450 -105.8819 263° West 399 459 30,000 1,260 Climbing Denver Center
10:39PM 39.8297 -106.0436 263° West 445 512 31,300 1,740 Climbing Denver Center
10:40PM 39.8150 -106.2042 263° West 445 512 33,600 2,040 Climbing Denver Center
10:41PM 39.7994 -106.3856 264° West 432 497 35,600 1,140 Climbing Denver Center
10:42PM 39.7889 -106.5269 264° West 433 498 36,000 180 Climbing Denver Center
10:43PM 39.7722 -106.6828 262° West 436 502 36,000  Level Denver Center
10:44PM 39.7550 -106.8364 262° West 434 499 36,000  Level Denver Center
10:45PM 39.7375 -106.9906 262° West 436 502 36,000  Level Denver Center
10:46PM 39.7169 -107.1758 262° West 435 501 36,000  Level Denver Center
10:47PM 39.6994 -107.3264 261° West 432 497 36,000  Level Denver Center
10:48PM 39.6792 -107.4981 261° West 431 496 36,000  Level Denver Center
10:49PM 39.6636 -107.6442 262° West 428 493 36,000  Level Denver Center
10:50PM 39.6458 -107.7925 261° West 433 498 36,000  Level Denver Center
10:51PM 39.6231 -107.9669 260° West 441 507 36,000  Level Denver Center
10:52PM 39.6061 -108.1150 262° West 436 502 36,000  Level Denver Center
10:53PM 39.5839 -108.2917 261° West 441 507 36,000  Level Denver Center
10:54PM 39.5667 -108.4403 261° West 433 498 36,000  Level Denver Center
10:55PM 39.5478 -108.5900 261° West 435 501 36,000  Level Denver Center
10:56PM 39.5250 -108.7681 261° West 438 504 36,000  Level Denver Center
10:57PM 39.5047 -108.9217 260° West 445 512 36,000  Level Denver Center
10:58PM 39.4864 -109.0708 261° West 438 504 36,000  Level Denver Center
11:00PM 39.4631 -109.2456 260° West 440 506 36,000  Level Denver Center
11:01PM 39.4436 -109.3967 261° West 447 514 36,000  Level Denver Center
11:02PM 39.4194 -109.5722 260° West 444 511 36,000  Level Denver Center
11:02PM 39.4033 -109.6983 261° West 445 512 36,000  Level Salt Lake Center
11:04PM 39.3789 -109.8739 260° West 444 511 36,000  Level Denver Center
11:05PM 39.3586 -110.0231 260° West 440 506 36,000  Level Salt Lake Center
11:06PM 39.3364 -110.1958 261° West 437 503 36,000  Level Salt Lake Center
11:07PM 39.3169 -110.3414 260° West 430 495 36,000  Level Salt Lake Center
11:08PM 39.2922 -110.5097 259° West 426 490 36,000  Level Denver Center
11:09PM 39.2711 -110.6781 261° West 426 490 36,000  Level Denver Center
11:10PM 39.2542 -110.7975 260° West 424 488 36,000  Level Salt Lake Center
11:11PM 39.2278 -110.9628 258° West 423 487 36,000  Level Salt Lake Center
11:12PM 39.2086 -111.1083 260° West 429 494 36,000  Level Salt Lake Center
11:13PM 39.1875 -111.2519 259° West 426 490 36,000  Level Salt Lake Center
11:14PM 39.1675 -111.4094 261° West 429 494 36,000  Level Salt Lake Center
11:15PM 39.1444 -111.5550 259° West 419 482 36,000  Level Salt Lake Center
11:16PM 39.1225 -111.7022 259° West 420 483 36,000  Level Salt Lake Center
11:17PM 39.0964 -111.8825 259° West 428 493 36,000  Level Salt Lake Center
11:18PM 39.0739 -112.0314 259° West 427 491 36,000  Level Salt Lake Center
11:19PM 39.0500 -112.1797 258° West 426 490 36,000  Level Salt Lake Center
11:20PM 39.0278 -112.3286 259° West 427 491 36,000  Level Salt Lake Center
11:21PM 39.0050 -112.4772 259° West 426 490 36,000  Level Salt Lake Center
11:22PM 38.9814 -112.6247 258° West 426 490 36,000  Level Salt Lake Center
11:23PM 38.9572 -112.7728 258° West 426 490 36,000  Level Salt Lake Center
11:24PM 38.9300 -112.9519 259° West 428 493 36,000  Level Salt Lake Center
11:25PM 38.9056 -113.1011 258° West 428 493 36,000  Level Salt Lake Center
11:26PM 38.8817 -113.2497 258° West 428 493 36,000  Level Salt Lake Center
11:27PM 38.8569 -113.3978 258° West 428 493 36,000  Level Salt Lake Center
11:28PM 38.8322 -113.5458 258° West 427 491 36,000  Level Salt Lake Center
11:29PM 38.8075 -113.6933 258° West 427 491 36,000  Level Salt Lake Center
11:30PM 38.7825 -113.8403 258° West 426 490 36,000  Level Salt Lake Center
11:31PM 38.7533 -114.0181 258° West 427 491 36,000  Level Salt Lake Center
11:32PM 38.7281 -114.1669 258° West 429 494 36,000  Level Salt Lake Center
11:33PM 38.7022 -114.3150 257° West 429 494 36,000  Level Salt Lake Center
11:34PM 38.6767 -114.4642 258° West 431 496 36,000  Level Salt Lake Center
11:35PM 38.6506 -114.6100 257° West 425 489 36,000  Level Salt Lake Center
11:36PM 38.6233 -114.7592 257° West 431 496 36,000  Level Salt Lake Center
11:37PM 38.5964 -114.9092 257° West 434 499 36,000  Level Salt Lake Center
11:38PM 38.5697 -115.0608 257° West 438 504 36,000  Level Salt Lake Center
11:39PM 38.5361 -115.2414 257° West 438 504 36,000  Level Salt Lake Center
11:40PM 38.5131 -115.3722 257° West 440 506 36,000  Level Salt Lake Center
11:41PM 38.4853 -115.5247 257° West 441 507 36,000  Level Salt Lake Center
11:42PM 38.4508 -115.7053 256° West 437 503 36,000  Level Salt Lake Center
11:43PM 38.4231 -115.8561 257° West 437 503 36,000  Level Salt Lake Center
11:45PM 38.3950 -116.0056 257° West 434 499 36,000  Level Salt Lake Center
11:46PM 38.3667 -116.1547 256° West 433 498 36,000  Level Salt Lake Center
11:47PM 38.3386 -116.3022 256° West 429 494 36,000  Level Salt Lake Center
11:47PM 38.3211 -116.3900 256° West 427 491 36,000  Level Oakland Center
11:48PM 38.2881 -116.5342 254° West 426 490 36,000  Level Oakland Center
11:49PM 38.2558 -116.6786 254° West 425 489 36,000  Level Oakland Center
11:50PM 38.2225 -116.8236 254° West 425 489 36,000  Level Oakland Center
11:51PM 38.2089 -116.8814 253° West 425 489 36,000  Level Salt Lake Center
11:52PM 38.1678 -117.0244 250° West 434 499 36,000  Level Salt Lake Center
11:53PM 38.1058 -117.1653 241° Southwest 435 501 36,000  Level Salt Lake Center
11:53PM 38.0678 -117.2511 241° Southwest 450 518 36,000  Level Oakland Center
11:54PM 38.0100 -117.3878 242° Southwest 438 504 36,000  Level Oakland Center
11:55PM 37.9511 -117.5233 241° Southwest 438 504 36,000  Level Oakland Center
11:56PM 37.8928 -117.6578 241° Southwest 438 504 36,000  Level Oakland Center
11:57PM 37.8331 -117.7928 241° Southwest 441 507 36,000 -360 Level Oakland Center
11:58PM 37.7739 -117.9278 241° Southwest 441 507 35,300 -840 Descending Oakland Center
11:59PM 37.7139 -118.0633 241° Southwest 440 506 34,400 -1,080 Descending Oakland Center
12:00AM 37.6414 -118.2272 241° Southwest 443 510 33,200 -1,140 Descending Oakland Center
12:01AM 37.5825 -118.3608 241° Southwest 436 502 32,100 -1,020 Descending Oakland Center
12:02AM 37.5233 -118.4900 240° Southwest 427 491 31,200 -960 Descending Oakland Center
12:03AM 37.4636 -118.6208 240° Southwest 431 496 30,200 -600 Descending Oakland Center
12:04AM 37.4047 -118.7503 240° Southwest 427 491 30,000 -120 Descending Oakland Center
12:05AM 37.3775 -118.8919 256° West 414 476 30,000  Level Oakland Center
12:06AM 37.3650 -119.0319 264° West 406 467 30,000 -60 Level Oakland Center
12:07AM 37.3514 -119.1747 263° West 427 491 29,900 -600 Descending Oakland Center
12:09AM 37.3372 -119.3164 263° West 405 466 28,900 -1,020 Descending Oakland Center
12:10AM 37.3236 -119.4556 263° West 403 464 27,900 -900 Descending Oakland Center
12:11AM 37.3078 -119.5872 261° West 384 442 27,100 -900 Descending Oakland Center
12:12AM 37.2942 -119.7178 263° West 380 437 26,100 -1,140 Descending Oakland Center
12:13AM 37.2764 -119.8675 262° West 375 432 24,900 -1,140 Descending Oakland Center
12:14AM 37.2636 -119.9956 263° West 370 426 23,900 -1,380 Descending Oakland Center
12:15AM 37.2486 -120.1178 261° West 356 410 22,100 -1,860 Descending Oakland Center
12:16AM 37.2353 -120.2400 262° West 355 409 20,200 -1,800 Descending Oakland Center
12:17AM 37.2228 -120.3550 262° West 338 389 18,500 -1,680 Descending Oakland Center
12:17AM 37.2167 -120.4167 263° West 342 394 17,600 -1,860 Descending Northern Cal TRACON
12:18AM 37.2000 -120.5333 260° West 376 433 15,700 -1,860 Descending Northern Cal TRACON
12:19AM 37.1667 -120.6333 247° West 324 373 13,900 -1,800 Descending Northern Cal TRACON
12:20AM 37.1500 -120.7500 260° West 322 371 12,100 -960 Descending Northern Cal TRACON
12:21AM 37.1167 -120.8500 247° West 315 362 12,000 -180 Descending Northern Cal TRACON
12:22AM 37.1150 -120.8972 267° West 299 344 11,900 -120 Descending Oakland Center
12:23AM 37.1044 -121.0061 263° West 314 361 11,900 -660 Level Oakland Center
12:24AM 37.0933 -121.1125 263° West 311 358 10,600 -960 Descending Oakland Center
12:25AM 37.0819 -121.2158 262° West 293 337 10,000 -660 Descending Oakland Center
12:26AM 37.0731 -121.3122 263° West 283 326 9,300 -1,140 Descending Oakland Center
12:27AM 37.0825 -121.4081 277° West 289 333 7,800 -1,680 Descending Oakland Center
12:28AM 37.1100 -121.5064 289° West 263 303 6,000 -1,380 Descending Oakland Center
12:29AM 37.1292 -121.5792 288° West 262 302 5,000 -540 Descending Oakland Center
12:30AM 37.1483 -121.6619 286° West 253 291 5,000 -420 Level Oakland Center
12:31AM 37.1886 -121.7444 302° West 248 285 4,200 -960 Descending Oakland Center
12:32AM 37.2356 -121.7928 321° Northwest 230 265 3,100 -1,140 Descending Oakland Center
12:33AM 37.2772 -121.8381 319° Northwest 213 245 2,000 -1,020 Descending Oakland Center
12:34AM 37.3128 -121.8750 320° Northwest 188 216 1,100 -780 Descending Oakland Center
12:35AM 37.3386 -121.9050 317° Northwest 153 176 500 14,160 Descending Oakland Center
12:36AM 37.3653 -121.9333 320° Northwest 135 155 30,000 28,980 Climbing Oakland Center
12:38AM 37.3627 -121.9291 North  Level Estimated
12:45AM 37.3627 -121.9291 North  Level Estimated